createdAt,value
2018-05-24T00:01:06.369Z,17.60
2018-05-24T00:03:34.116Z,17.60
2018-05-24T00:06:06.200Z,17.70
2018-05-24T00:08:33.707Z,17.70
2018-05-24T00:11:02.347Z,17.70
2018-05-24T00:13:36.563Z,17.60
2018-05-24T00:16:04.069Z,17.60
2018-05-24T00:18:33.618Z,17.60
2018-05-24T00:21:06.281Z,17.60
2018-05-24T00:23:35.927Z,17.50
2018-05-24T00:26:07.039Z,17.50
2018-05-24T00:28:37.567Z,17.50
2018-05-24T00:31:05.073Z,17.40
2018-05-24T00:33:32.808Z,17.40
2018-05-24T00:36:04.172Z,17.40
2018-05-24T00:38:37.861Z,17.40
2018-05-24T00:41:06.544Z,17.30
2018-05-24T00:43:41.980Z,17.30
2018-05-24T00:46:24.107Z,17.20
2018-05-24T00:48:53.802Z,17.20
2018-05-24T00:51:21.310Z,17.00
2018-05-24T00:53:49.022Z,16.90
2018-05-24T00:56:22.892Z,16.80
2018-05-24T00:58:51.616Z,16.80
2018-05-24T01:01:20.354Z,16.70
2018-05-24T01:03:54.216Z,16.70
2018-05-24T01:06:26.321Z,16.60
2018-05-24T01:08:55.888Z,16.60
2018-05-24T01:11:23.616Z,16.60
2018-05-24T01:13:54.786Z,16.50
2018-05-24T01:16:24.418Z,16.50
2018-05-24T01:18:51.934Z,16.60
2018-05-24T01:21:21.486Z,16.50
2018-05-24T01:23:49.880Z,16.50
2018-05-24T01:26:19.163Z,16.40
2018-05-24T01:28:48.758Z,16.40
2018-05-24T01:31:20.292Z,16.50
2018-05-24T01:34:04.499Z,16.40
2018-05-24T01:36:48.659Z,16.40
2018-05-24T01:39:17.297Z,16.40
2018-05-24T01:41:52.221Z,16.30
2018-05-24T01:44:21.743Z,16.30
2018-05-24T01:46:50.613Z,16.30
2018-05-24T01:49:19.351Z,16.20
2018-05-24T01:51:47.185Z,16.20
2018-05-24T01:54:16.819Z,16.20
2018-05-24T01:56:56.509Z,16.20
2018-05-24T01:59:26.171Z,16.20
2018-05-24T02:01:56.681Z,16.10
2018-05-24T02:04:25.022Z,16.10
2018-05-24T02:06:52.519Z,16.20
2018-05-24T02:09:24.383Z,16.10
2018-05-24T02:11:52.083Z,16.00
2018-05-24T02:14:25.615Z,16.00
2018-05-24T02:17:03.965Z,16.00
2018-05-24T02:19:38.074Z,16.00
2018-05-24T02:22:11.032Z,16.00
2018-05-24T02:24:50.505Z,16.00
2018-05-24T02:27:25.297Z,16.00
2018-05-24T02:29:58.036Z,16.00
2018-05-24T02:32:28.861Z,16.00
2018-05-24T02:34:58.471Z,16.00
2018-05-24T02:37:29.605Z,16.00
2018-05-24T02:40:06.893Z,16.10
2018-05-24T02:42:39.280Z,16.10
2018-05-24T02:45:13.778Z,16.10
2018-05-24T02:47:47.358Z,16.10
2018-05-24T02:50:16.092Z,16.10
2018-05-24T02:52:45.698Z,16.00
2018-05-24T02:55:13.233Z,16.10
2018-05-24T02:57:40.921Z,16.10
2018-05-24T03:00:20.960Z,16.10
2018-05-24T03:02:48.482Z,16.10
2018-05-24T03:05:20.486Z,16.10
2018-05-24T03:07:50.124Z,16.00
2018-05-24T03:10:20.333Z,16.10
2018-05-24T03:12:57.904Z,16.10
2018-05-24T03:15:29.071Z,16.10
2018-05-24T03:18:00.552Z,16.00
2018-05-24T03:20:28.283Z,16.00
2018-05-24T03:22:55.775Z,16.00
2018-05-24T03:25:29.315Z,15.90
2018-05-24T03:27:56.817Z,15.90
2018-05-24T03:30:32.229Z,15.90
2018-05-24T03:33:03.393Z,15.80
2018-05-24T03:35:35.185Z,15.70
2018-05-24T03:38:04.771Z,15.80
2018-05-24T03:40:35.943Z,15.70
2018-05-24T03:43:04.597Z,15.70
2018-05-24T03:45:32.104Z,15.70
2018-05-24T03:48:05.369Z,15.60
2018-05-24T03:50:38.333Z,15.60
2018-05-24T03:53:10.131Z,15.60
2018-05-24T03:55:40.321Z,15.60
2018-05-24T03:58:14.537Z,15.60
2018-05-24T04:04:07.981Z,15.60
2018-05-24T04:06:37.833Z,15.60
2018-05-24T04:09:07.363Z,15.60
2018-05-24T04:11:36.379Z,15.60
2018-05-24T04:14:05.043Z,15.60
2018-05-24T04:16:33.719Z,15.60
2018-05-24T04:19:01.233Z,15.60
2018-05-24T04:21:30.791Z,15.70
2018-05-24T04:23:59.469Z,15.70
2018-05-24T04:26:29.223Z,15.70
2018-05-24T04:28:58.078Z,15.70
2018-05-24T04:31:25.582Z,15.60
2018-05-24T04:34:01.621Z,15.60
2018-05-24T04:36:29.147Z,15.60
2018-05-24T04:38:56.815Z,15.50
2018-05-24T04:41:26.434Z,15.50
2018-05-24T04:44:00.631Z,15.40
2018-05-24T04:46:30.270Z,15.50
2018-05-24T04:49:09.061Z,15.50
2018-05-24T04:51:38.751Z,15.50
2018-05-24T04:54:18.117Z,15.40
2018-05-24T04:56:45.626Z,15.40
2018-05-24T04:59:14.275Z,15.40
2018-05-24T05:01:43.944Z,15.40
2018-05-24T05:04:11.674Z,15.50
2018-05-24T05:06:43.716Z,15.50
2018-05-24T05:09:28.762Z,15.60
2018-05-24T05:11:57.389Z,15.70
2018-05-24T05:14:24.896Z,15.70
2018-05-24T05:16:52.600Z,15.80
2018-05-24T05:19:20.104Z,15.80
2018-05-24T05:21:52.763Z,15.80
2018-05-24T05:24:21.861Z,15.80
2018-05-24T05:26:56.893Z,15.90
2018-05-24T05:29:25.251Z,15.90
2018-05-24T05:31:52.763Z,15.90
2018-05-24T05:34:26.909Z,16.00
2018-05-24T05:37:00.807Z,16.10
2018-05-24T05:39:36.585Z,16.10
2018-05-24T05:42:04.077Z,16.10
2018-05-24T05:44:33.665Z,16.10
2018-05-24T05:47:11.555Z,16.10
2018-05-24T05:49:45.125Z,16.10
2018-05-24T05:52:12.675Z,16.10
2018-05-24T05:54:46.181Z,16.10
2018-05-24T05:57:15.858Z,16.10
2018-05-24T05:59:50.653Z,16.10
2018-05-24T06:02:20.332Z,16.10
2018-05-24T06:04:53.851Z,16.00
2018-05-24T06:07:21.347Z,16.00
2018-05-24T06:10:01.071Z,16.00
2018-05-24T06:12:28.583Z,16.00
2018-05-24T06:14:56.287Z,15.90
2018-05-24T06:17:25.933Z,15.90
2018-05-24T06:19:57.677Z,15.90
2018-05-24T06:22:25.181Z,15.90
2018-05-24T06:25:03.692Z,15.80
2018-05-24T06:27:31.147Z,15.70
2018-05-24T06:30:17.643Z,15.60
2018-05-24T06:32:48.455Z,15.50
2018-05-24T06:35:24.515Z,15.30
2018-05-24T06:38:03.315Z,15.30
2018-05-24T06:40:33.024Z,15.40
2018-05-24T06:43:07.430Z,15.40
2018-05-24T06:45:36.187Z,15.20
2018-05-24T06:48:04.845Z,15.10
2018-05-24T06:50:32.401Z,15.10
2018-05-24T06:53:00.128Z,15.20
2018-05-24T06:55:30.903Z,15.20
2018-05-24T06:58:02.375Z,15.40
2018-05-24T07:00:35.642Z,15.40
2018-05-24T07:03:04.361Z,15.50
2018-05-24T07:05:36.111Z,15.70
2018-05-24T07:08:07.864Z,15.70
2018-05-24T07:10:37.479Z,15.70
2018-05-24T07:13:08.317Z,15.60
2018-05-24T07:15:36.164Z,15.90
2018-05-24T07:18:03.842Z,15.80
2018-05-24T07:20:45.051Z,16.10
2018-05-24T07:23:13.515Z,16.00
2018-05-24T07:25:41.032Z,16.00
2018-05-24T07:31:01.969Z,16.20
2018-05-24T07:33:29.481Z,16.50
2018-05-24T07:35:58.131Z,16.30
2018-05-24T07:38:27.757Z,16.30
2018-05-24T07:40:57.387Z,16.60
2018-05-24T07:43:27.331Z,16.90
2018-05-24T07:46:08.177Z,17.00
2018-05-24T07:48:36.643Z,17.10
2018-05-24T07:51:23.181Z,17.30
2018-05-24T07:53:50.709Z,17.20
2018-05-24T07:56:20.190Z,17.10
2018-05-24T07:58:54.333Z,17.00
2018-05-24T08:01:35.696Z,16.90
2018-05-24T08:04:17.243Z,17.00
2018-05-24T08:06:48.439Z,17.10
2018-05-24T08:09:30.555Z,16.90
2018-05-24T08:12:10.346Z,16.80
2018-05-24T08:14:46.204Z,16.90
2018-05-24T08:17:15.747Z,16.70
2018-05-24T08:19:50.221Z,16.60
2018-05-24T08:22:19.897Z,16.60
2018-05-24T08:24:53.769Z,16.70
2018-05-24T08:27:33.191Z,16.80
2018-05-24T08:30:12.637Z,16.80
2018-05-24T08:32:52.090Z,16.80
2018-05-24T08:35:21.740Z,16.70
2018-05-24T08:37:55.603Z,16.60
2018-05-24T08:40:24.317Z,16.60
2018-05-24T08:42:59.127Z,16.60
2018-05-24T08:45:41.277Z,16.60
2018-05-24T08:48:10.963Z,16.80
2018-05-24T08:50:45.167Z,17.10
2018-05-24T08:53:12.691Z,17.00
2018-05-24T08:55:40.379Z,17.00
2018-05-24T08:58:07.901Z,17.20
2018-05-24T09:00:37.474Z,17.50
2018-05-24T09:03:17.461Z,17.80
2018-05-24T09:05:44.985Z,17.80
2018-05-24T09:08:12.510Z,17.70
2018-05-24T09:10:40.232Z,17.70
2018-05-24T09:13:08.895Z,17.70
2018-05-24T09:15:39.185Z,18.10
2018-05-24T09:18:08.711Z,18.10
2018-05-24T09:20:40.899Z,18.20
2018-05-24T09:23:17.141Z,18.20
2018-05-24T09:25:48.011Z,18.20
2018-05-24T09:28:18.839Z,18.50
2018-05-24T09:31:11.215Z,18.10
2018-05-24T09:33:53.301Z,18.10
2018-05-24T09:36:21.865Z,18.20
2018-05-24T09:38:50.445Z,17.90
2018-05-24T09:41:28.331Z,18.10
2018-05-24T09:43:59.165Z,18.00
2018-05-24T09:46:34.618Z,17.70
2018-05-24T09:49:14.325Z,17.50
2018-05-24T09:51:47.371Z,17.50
2018-05-24T09:54:27.703Z,17.60
2018-05-24T09:57:01.037Z,17.40
2018-05-24T09:59:32.169Z,17.70
2018-05-24T10:01:59.703Z,17.60
2018-05-24T10:04:31.105Z,17.90
2018-05-24T10:07:01.937Z,17.70
2018-05-24T10:09:30.586Z,17.60
2018-05-24T10:12:01.149Z,17.80
2018-05-24T10:14:30.730Z,17.80
2018-05-24T10:16:58.254Z,17.80
2018-05-24T10:19:25.758Z,17.90
2018-05-24T10:21:58.364Z,18.10
2018-05-24T10:24:30.082Z,18.00
2018-05-24T10:27:03.100Z,18.30
2018-05-24T10:29:33.311Z,18.50
2018-05-24T10:32:05.384Z,18.50
2018-05-24T10:34:33.746Z,18.60
2018-05-24T10:37:03.159Z,18.60
2018-05-24T10:39:43.797Z,18.50
2018-05-24T10:42:17.566Z,18.70
2018-05-24T10:44:45.151Z,19.20
2018-05-24T10:47:12.662Z,19.60
2018-05-24T10:49:40.192Z,19.60
2018-05-24T10:52:13.338Z,19.20
2018-05-24T10:54:41.995Z,19.00
2018-05-24T10:57:15.558Z,19.20
2018-05-24T10:59:53.376Z,19.30
2018-05-24T11:02:37.532Z,19.40
2018-05-24T11:05:04.997Z,19.50
2018-05-24T11:07:38.283Z,19.60
2018-05-24T11:10:07.946Z,19.60
2018-05-24T11:12:52.492Z,19.80
2018-05-24T11:15:26.460Z,20.10
2018-05-24T11:17:56.075Z,20.20
2018-05-24T11:20:25.685Z,20.50
2018-05-24T11:23:08.149Z,20.70
2018-05-24T11:25:35.655Z,20.80
2018-05-24T11:28:05.059Z,21.00
2018-05-24T11:30:32.556Z,20.70
2018-05-24T11:33:00.181Z,20.60
2018-05-24T11:35:28.887Z,20.90
2018-05-24T11:37:59.727Z,21.40
2018-05-24T11:40:29.027Z,21.10
2018-05-24T11:42:56.537Z,21.00
2018-05-24T11:45:24.034Z,21.00
2018-05-24T11:47:51.706Z,21.50
2018-05-24T11:50:19.223Z,22.00
2018-05-24T11:52:53.204Z,21.80
2018-05-24T11:55:26.385Z,21.80
2018-05-24T11:57:54.689Z,21.40
2018-05-24T12:00:23.098Z,21.40
2018-05-24T12:03:00.844Z,21.90
2018-05-24T12:05:36.463Z,21.90
2018-05-24T12:08:04.003Z,22.20
2018-05-24T12:10:31.686Z,21.90
2018-05-24T12:13:05.464Z,22.10
2018-05-24T12:15:36.458Z,21.90
2018-05-24T12:18:08.203Z,21.80
2018-05-24T12:20:35.705Z,22.10
2018-05-24T12:23:04.373Z,22.20
2018-05-24T12:25:33.640Z,22.00
2018-05-24T12:28:01.168Z,22.00
2018-05-24T12:30:30.725Z,22.10
2018-05-24T12:32:59.147Z,21.90
2018-05-24T12:35:34.338Z,21.40
2018-05-24T12:38:11.641Z,21.40
2018-05-24T12:40:43.900Z,22.00
2018-05-24T12:43:19.933Z,22.00
2018-05-24T12:46:04.109Z,22.60
2018-05-24T12:48:43.116Z,22.20
2018-05-24T12:51:12.428Z,22.10
2018-05-24T12:53:41.115Z,22.10
2018-05-24T12:56:10.756Z,22.50
2018-05-24T12:58:38.282Z,22.70
2018-05-24T13:01:08.718Z,22.50
2018-05-24T13:03:42.018Z,22.50
2018-05-24T13:06:11.636Z,22.50
2018-05-24T13:08:42.782Z,22.70
2018-05-24T13:11:14.137Z,23.10
2018-05-24T13:13:41.629Z,23.10
2018-05-24T13:22:17.216Z,22.80
2018-05-24T13:24:48.340Z,22.90
2018-05-24T13:27:16.734Z,23.10
2018-05-24T13:29:46.037Z,22.90
2018-05-24T13:32:21.442Z,22.90
2018-05-24T13:34:51.115Z,22.70
2018-05-24T13:37:39.462Z,22.60
2018-05-24T13:40:13.947Z,22.50
2018-05-24T13:42:46.326Z,22.50
2018-05-24T13:45:13.885Z,22.70
2018-05-24T13:47:47.663Z,22.50
2018-05-24T13:50:20.396Z,22.40
2018-05-24T13:53:08.146Z,22.40
2018-05-24T13:55:35.876Z,22.40
2018-05-24T13:58:22.299Z,22.40
2018-05-24T14:00:58.437Z,22.50
2018-05-24T14:03:25.930Z,22.50
2018-05-24T14:06:07.192Z,22.30
2018-05-24T14:08:45.676Z,22.40
2018-05-24T14:11:19.978Z,22.70
2018-05-24T14:13:59.345Z,22.60
2018-05-24T14:16:31.778Z,22.70
2018-05-24T14:18:59.494Z,22.60
2018-05-24T14:21:47.283Z,22.70
2018-05-24T14:24:19.626Z,22.70
2018-05-24T14:26:48.335Z,22.70
2018-05-24T14:29:33.534Z,22.70
2018-05-24T14:32:10.495Z,22.70
2018-05-24T14:34:38.055Z,22.60
2018-05-24T14:37:07.626Z,22.40
2018-05-24T14:39:41.270Z,22.50
2018-05-24T14:42:08.976Z,22.50
2018-05-24T14:44:48.133Z,22.70
2018-05-24T14:47:29.710Z,22.90
2018-05-24T14:50:05.431Z,23.00
2018-05-24T14:52:36.630Z,23.10
2018-05-24T14:55:06.231Z,23.10
2018-05-24T14:57:44.088Z,23.10
2018-05-24T15:00:27.503Z,23.10
2018-05-24T15:03:01.170Z,23.20
2018-05-24T15:05:47.590Z,23.50
2018-05-24T15:08:16.131Z,23.70
2018-05-24T15:10:43.810Z,23.60
2018-05-24T15:16:23.895Z,23.20
2018-05-24T15:18:52.052Z,23.20
2018-05-24T15:21:19.717Z,23.20
2018-05-24T15:23:55.776Z,23.30
2018-05-24T15:26:23.599Z,23.40
2018-05-24T15:28:51.331Z,23.40
2018-05-24T15:31:19.096Z,23.70
2018-05-24T15:33:47.778Z,23.70
2018-05-24T15:36:18.959Z,23.60
2018-05-24T15:38:47.622Z,23.50
2018-05-24T15:41:22.128Z,23.60
2018-05-24T15:43:50.816Z,23.50
2018-05-24T15:46:18.326Z,23.50
2018-05-24T15:48:46.029Z,23.60
2018-05-24T15:51:16.261Z,24.30
2018-05-24T15:53:49.525Z,24.30
2018-05-24T15:56:25.587Z,24.40
2018-05-24T15:58:57.740Z,24.60
2018-05-24T16:01:27.002Z,24.10
2018-05-24T16:03:54.729Z,24.10
2018-05-24T16:09:21.328Z,23.80
2018-05-24T16:12:08.473Z,23.50
2018-05-24T16:14:43.566Z,23.30
2018-05-24T16:17:29.141Z,23.30
2018-05-24T16:20:03.030Z,23.20
2018-05-24T16:22:32.690Z,23.10
2018-05-24T16:25:06.564Z,23.10
2018-05-24T16:27:58.422Z,23.10
2018-05-24T16:30:28.154Z,23.20
2018-05-24T16:32:55.689Z,23.10
2018-05-24T16:35:23.981Z,23.10
2018-05-24T16:37:53.705Z,23.00
2018-05-24T16:40:21.502Z,23.20
2018-05-24T16:42:51.062Z,23.30
2018-05-24T16:45:18.794Z,23.20
2018-05-24T16:47:57.727Z,23.00
2018-05-24T16:50:31.505Z,23.00
2018-05-24T16:53:00.282Z,22.80
2018-05-24T16:55:28.139Z,22.80
2018-05-24T16:57:58.896Z,22.60
2018-05-24T17:00:34.008Z,22.50
2018-05-24T17:03:15.184Z,22.50
2018-05-24T17:05:42.737Z,22.40
2018-05-24T17:08:11.398Z,22.40
2018-05-24T17:10:42.594Z,22.40
2018-05-24T17:13:11.286Z,22.30
2018-05-24T17:15:53.386Z,22.20
2018-05-24T17:18:22.140Z,22.20
2018-05-24T17:20:51.762Z,22.10
2018-05-24T17:23:36.028Z,22.00
2018-05-24T17:26:09.382Z,22.00
2018-05-24T17:28:41.472Z,22.10
2018-05-24T17:31:15.013Z,22.20
2018-05-24T17:33:44.662Z,22.10
2018-05-24T17:36:13.348Z,22.00
2018-05-24T17:38:53.376Z,22.00
2018-05-24T17:41:33.151Z,22.00
2018-05-24T17:44:12.563Z,22.00
2018-05-24T17:46:59.033Z,21.90
2018-05-24T17:49:31.147Z,21.70
2018-05-24T17:51:58.647Z,21.50
2018-05-24T17:54:29.776Z,21.60
2018-05-24T17:56:57.280Z,21.50
2018-05-24T17:59:28.993Z,21.40
2018-05-24T18:01:56.486Z,21.40
2018-05-24T18:04:24.196Z,21.30
2018-05-24T18:06:51.748Z,21.30
2018-05-24T18:09:19.421Z,21.30
2018-05-24T18:11:57.923Z,21.30
2018-05-24T18:14:27.584Z,21.20
2018-05-24T18:16:55.317Z,21.10
2018-05-24T18:19:27.397Z,21.10
2018-05-24T18:21:55.148Z,21.10
2018-05-24T18:24:27.264Z,21.10
2018-05-24T18:27:13.481Z,21.00
2018-05-24T18:29:45.822Z,21.00
2018-05-24T18:32:19.988Z,21.00
2018-05-24T18:34:49.620Z,21.00
2018-05-24T18:37:23.208Z,20.90
2018-05-24T18:39:58.658Z,20.80
2018-05-24T18:42:27.368Z,20.80
2018-05-24T18:45:19.478Z,20.80
2018-05-24T18:47:48.130Z,20.90
2018-05-24T18:50:15.836Z,20.80
2018-05-24T18:52:46.718Z,20.80
2018-05-24T18:55:17.852Z,20.70
2018-05-24T18:57:50.926Z,20.70
2018-05-24T19:00:25.441Z,20.70
2018-05-24T19:03:03.776Z,20.70
2018-05-24T19:05:32.291Z,20.70
2018-05-24T19:08:04.673Z,20.70
2018-05-24T19:10:32.394Z,20.60
2018-05-24T19:13:17.762Z,20.60
2018-05-24T19:15:47.311Z,20.60
2018-05-24T19:18:15.064Z,20.50
2018-05-24T19:20:42.782Z,20.40
2018-05-24T19:23:10.334Z,20.40
2018-05-24T19:25:43.534Z,20.30
2018-05-24T19:28:24.505Z,20.20
2018-05-24T19:31:04.604Z,20.00
2018-05-24T19:33:33.310Z,19.90
2018-05-24T19:36:01.047Z,19.70
2018-05-24T19:38:34.331Z,19.60
2018-05-24T19:41:03.720Z,19.40
2018-05-24T19:43:31.406Z,19.40
2018-05-24T19:46:07.402Z,19.40
2018-05-24T19:48:36.168Z,19.30
2018-05-24T19:51:18.596Z,19.20
2018-05-24T19:53:47.372Z,19.20
2018-05-24T19:56:23.365Z,19.00
2018-05-24T19:58:55.360Z,19.00
2018-05-24T20:01:24.582Z,18.90
2018-05-24T20:04:01.743Z,18.80
2018-05-24T20:06:43.074Z,18.90
2018-05-24T20:09:14.335Z,18.90
2018-05-24T20:11:42.134Z,18.90
2018-05-24T20:14:10.786Z,19.00
2018-05-24T20:16:39.644Z,19.00
2018-05-24T20:19:08.420Z,19.00
2018-05-24T20:21:41.013Z,18.90
2018-05-24T20:24:08.933Z,18.80
2018-05-24T20:26:38.681Z,18.80
2018-05-24T20:29:08.269Z,18.70
2018-05-24T20:31:36.968Z,18.70
2018-05-24T20:34:06.255Z,18.70
2018-05-24T20:36:35.009Z,18.70
2018-05-24T20:39:06.419Z,18.70
2018-05-24T20:41:35.515Z,18.60
2018-05-24T20:44:09.083Z,18.50
2018-05-24T20:46:43.687Z,18.50
2018-05-24T20:49:16.425Z,18.50
2018-05-24T20:51:44.999Z,18.40
2018-05-24T20:54:18.457Z,18.40
2018-05-24T20:56:48.143Z,18.40
2018-05-24T20:59:15.949Z,18.30
2018-05-24T21:01:43.678Z,18.30
2018-05-24T21:04:11.241Z,18.30
2018-05-24T21:06:38.850Z,18.30
2018-05-24T21:09:06.441Z,18.40
2018-05-24T21:11:34.099Z,18.30
2018-05-24T21:14:02.717Z,18.30
2018-05-24T21:16:30.543Z,18.30
2018-05-24T21:18:58.092Z,18.30
2018-05-24T21:21:27.651Z,18.30
2018-05-24T21:24:06.120Z,18.30
2018-05-24T21:26:38.491Z,18.30
2018-05-24T21:29:08.211Z,18.30
2018-05-24T21:31:44.442Z,18.20
2018-05-24T21:34:14.211Z,18.20
2018-05-24T21:36:54.681Z,18.00
2018-05-24T21:39:22.201Z,18.10
2018-05-24T21:41:51.849Z,18.00
2018-05-24T21:44:19.584Z,18.00
2018-05-24T21:46:58.857Z,18.00
2018-05-24T21:49:26.797Z,17.90
2018-05-24T21:51:59.785Z,18.00
2018-05-24T21:54:28.793Z,18.10
2018-05-24T21:56:59.613Z,18.10
2018-05-24T21:59:28.319Z,18.10
2018-05-24T22:01:59.163Z,18.00
2018-05-24T22:04:27.859Z,18.00
2018-05-24T22:07:19.299Z,17.90
2018-05-24T22:09:53.465Z,17.90
2018-05-24T22:12:26.145Z,17.90
2018-05-24T22:14:57.619Z,17.90
2018-05-24T22:17:30.572Z,18.00
2018-05-24T22:19:59.267Z,17.90
2018-05-24T22:22:30.124Z,17.80
2018-05-24T22:24:59.401Z,17.90
2018-05-24T22:27:28.255Z,17.90
2018-05-24T22:29:56.704Z,17.80
2018-05-24T22:32:24.249Z,17.80
2018-05-24T22:34:52.946Z,17.80
2018-05-24T22:37:20.491Z,17.80
2018-05-24T22:39:52.157Z,17.70
2018-05-24T22:42:23.306Z,17.70
2018-05-24T22:44:56.009Z,17.70
2018-05-24T22:47:26.505Z,17.70
2018-05-24T22:49:55.821Z,17.70
2018-05-24T22:52:24.569Z,17.70
2018-05-24T22:54:59.850Z,17.70
2018-05-24T22:57:29.353Z,17.80
2018-05-24T22:59:57.129Z,17.80
2018-05-24T23:02:29.187Z,17.80
2018-05-24T23:04:57.625Z,17.70
2018-05-24T23:07:25.209Z,17.70
2018-05-24T23:09:53.939Z,17.70
2018-05-24T23:12:22.583Z,17.70
2018-05-24T23:14:50.101Z,17.70
2018-05-24T23:17:17.828Z,17.70
2018-05-24T23:19:45.808Z,17.70
2018-05-24T23:22:25.217Z,17.70
2018-05-24T23:24:54.928Z,17.60
2018-05-24T23:27:22.453Z,17.60
2018-05-24T23:29:58.135Z,17.60
2018-05-24T23:32:25.646Z,17.60
2018-05-24T23:35:00.123Z,17.50
2018-05-24T23:37:31.955Z,17.50
2018-05-24T23:40:00.619Z,17.40
2018-05-24T23:42:33.581Z,17.40
2018-05-24T23:45:07.811Z,17.30
2018-05-24T23:47:41.105Z,17.20
2018-05-24T23:50:18.714Z,17.30
2018-05-24T23:52:54.103Z,17.20
2018-05-24T23:55:22.826Z,17.20
2018-05-24T23:57:50.331Z,17.10
